sensor_id;sensor_type;location;lat;lon;timestamp;pressure;altitude;pressure_sealevel;temperature;humidity
4590;BME280;2307;48.448;9.216;2022-07-09T00:01:08;96524.22;;;15.50;77.74
4590;BME280;2307;48.448;9.216;2022-07-09T00:03:35;96527.94;;;15.37;78.74
4590;BME280;2307;48.448;9.216;2022-07-09T00:06:02;96526.44;;;15.29;79.88
4590;BME280;2307;48.448;9.216;2022-07-09T00:08:28;96529.06;;;15.41;78.27
4590;BME280;2307;48.448;9.216;2022-07-09T00:10:55;96515.91;;;15.23;76.24
4590;BME280;2307;48.448;9.216;2022-07-09T00:13:22;96522.13;;;15.40;75.61
4590;BME280;2307;48.448;9.216;2022-07-09T00:15:49;96520.84;;;15.42;79.75
4590;BME280;2307;48.448;9.216;2022-07-09T00:18:17;96519.13;;;15.36;81.68
4590;BME280;2307;48.448;9.216;2022-07-09T00:20:44;96522.88;;;15.24;82.23
4590;BME280;2307;48.448;9.216;2022-07-09T00:23:10;96519.44;;;15.12;82.29
4590;BME280;2307;48.448;9.216;2022-07-09T00:25:36;96516.72;;;15.23;80.97
4590;BME280;2307;48.448;9.216;2022-07-09T00:28:03;96521.25;;;15.23;81.84
4590;BME280;2307;48.448;9.216;2022-07-09T00:30:31;96511.19;;;15.25;81.09
4590;BME280;2307;48.448;9.216;2022-07-09T00:32:57;96507.03;;;15.17;81.33
4590;BME280;2307;48.448;9.216;2022-07-09T00:35:23;96504.16;;;15.19;80.88
4590;BME280;2307;48.448;9.216;2022-07-09T00:37:50;96509.28;;;15.37;80.76
4590;BME280;2307;48.448;9.216;2022-07-09T00:40:16;96507.31;;;15.32;82.24
4590;BME280;2307;48.448;9.216;2022-07-09T00:42:43;96504.47;;;15.22;84.60
4590;BME280;2307;48.448;9.216;2022-07-09T00:45:09;96503.59;;;15.05;84.89
4590;BME280;2307;48.448;9.216;2022-07-09T00:47:37;96502.56;;;14.95;85.48
4590;BME280;2307;48.448;9.216;2022-07-09T00:50:03;96498.41;;;14.99;84.58
4590;BME280;2307;48.448;9.216;2022-07-09T00:52:30;96498.28;;;14.94;86.49
4590;BME280;2307;48.448;9.216;2022-07-09T00:54:57;96496.03;;;14.74;85.02
4590;BME280;2307;48.448;9.216;2022-07-09T00:57:25;96488.06;;;14.74;85.78
4590;BME280;2307;48.448;9.216;2022-07-09T00:59:52;96479.34;;;14.78;84.07
4590;BME280;2307;48.448;9.216;2022-07-09T01:02:19;96478.31;;;14.79;82.70
4590;BME280;2307;48.448;9.216;2022-07-09T01:04:49;96477.38;;;14.85;80.55
4590;BME280;2307;48.448;9.216;2022-07-09T01:07:15;96478.53;;;14.89;80.87
4590;BME280;2307;48.448;9.216;2022-07-09T01:09:42;96472.75;;;14.93;80.96
4590;BME280;2307;48.448;9.216;2022-07-09T01:12:08;96472.28;;;14.96;80.79
4590;BME280;2307;48.448;9.216;2022-07-09T01:14:35;96465.59;;;14.93;82.98
4590;BME280;2307;48.448;9.216;2022-07-09T01:17:02;96475.28;;;14.87;83.86
4590;BME280;2307;48.448;9.216;2022-07-09T01:19:29;96468.63;;;14.73;83.60
4590;BME280;2307;48.448;9.216;2022-07-09T01:21:57;96468.63;;;14.73;84.17
4590;BME280;2307;48.448;9.216;2022-07-09T01:24:24;96466.53;;;14.75;83.05
4590;BME280;2307;48.448;9.216;2022-07-09T01:26:51;96466.41;;;14.82;80.89
4590;BME280;2307;48.448;9.216;2022-07-09T01:29:18;96461.59;;;14.67;80.74
4590;BME280;2307;48.448;9.216;2022-07-09T01:31:45;96462.28;;;14.74;82.10
4590;BME280;2307;48.448;9.216;2022-07-09T01:34:11;96459.72;;;14.79;82.32
4590;BME280;2307;48.448;9.216;2022-07-09T01:36:37;96458.91;;;14.79;81.59
4590;BME280;2307;48.448;9.216;2022-07-09T01:39:05;96457.13;;;14.84;85.09
4590;BME280;2307;48.448;9.216;2022-07-09T01:41:32;96452.97;;;14.88;83.10
4590;BME280;2307;48.448;9.216;2022-07-09T01:43:58;96448.22;;;14.90;80.71
4590;BME280;2307;48.448;9.216;2022-07-09T01:46:24;96453.34;;;14.80;84.98
4590;BME280;2307;48.448;9.216;2022-07-09T01:48:51;96448.50;;;14.66;86.18
4590;BME280;2307;48.448;9.216;2022-07-09T01:51:17;96453.13;;;14.59;84.64
4590;BME280;2307;48.448;9.216;2022-07-09T01:53:44;96451.06;;;14.49;86.06
4590;BME280;2307;48.448;9.216;2022-07-09T01:56:12;96445.19;;;14.47;86.35
4590;BME280;2307;48.448;9.216;2022-07-09T01:58:38;96441.50;;;14.48;86.61
4590;BME280;2307;48.448;9.216;2022-07-09T02:01:05;96438.38;;;14.51;86.85
4590;BME280;2307;48.448;9.216;2022-07-09T02:03:31;96441.38;;;14.43;87.67
4590;BME280;2307;48.448;9.216;2022-07-09T02:05:58;96439.53;;;14.44;87.68
4590;BME280;2307;48.448;9.216;2022-07-09T02:08:24;96441.75;;;14.35;88.00
4590;BME280;2307;48.448;9.216;2022-07-09T02:10:51;96435.84;;;14.33;89.19
4590;BME280;2307;48.448;9.216;2022-07-09T02:13:21;96438.59;;;14.15;91.76
4590;BME280;2307;48.448;9.216;2022-07-09T02:15:47;96430.97;;;14.07;91.51
4590;BME280;2307;48.448;9.216;2022-07-09T02:18:13;96437.69;;;13.98;91.81
4590;BME280;2307;48.448;9.216;2022-07-09T02:20:40;96437.69;;;13.98;91.32
4590;BME280;2307;48.448;9.216;2022-07-09T02:23:06;96436.16;;;14.02;91.48
4590;BME280;2307;48.448;9.216;2022-07-09T02:25:33;96425.44;;;13.97;92.27
4590;BME280;2307;48.448;9.216;2022-07-09T02:27:59;96432.72;;;14.01;92.02
4590;BME280;2307;48.448;9.216;2022-07-09T02:30:27;96436.03;;;14.08;90.56
4590;BME280;2307;48.448;9.216;2022-07-09T02:32:53;96437.06;;;14.30;89.98
4590;BME280;2307;48.448;9.216;2022-07-09T02:35:20;96429.34;;;14.29;89.91
4590;BME280;2307;48.448;9.216;2022-07-09T02:37:46;96428.19;;;14.25;87.27
4590;BME280;2307;48.448;9.216;2022-07-09T02:40:12;96428.91;;;14.20;87.24
4590;BME280;2307;48.448;9.216;2022-07-09T02:42:40;96433.28;;;14.15;88.63
4590;BME280;2307;48.448;9.216;2022-07-09T02:45:07;96428.31;;;14.18;89.00
4590;BME280;2307;48.448;9.216;2022-07-09T02:47:35;96437.00;;;14.14;90.37
4590;BME280;2307;48.448;9.216;2022-07-09T02:50:01;96426.00;;;14.10;90.40
4590;BME280;2307;48.448;9.216;2022-07-09T02:52:27;96432.25;;;14.16;90.47
4590;BME280;2307;48.448;9.216;2022-07-09T02:54:54;96429.59;;;14.16;90.16
4590;BME280;2307;48.448;9.216;2022-07-09T02:57:20;96431.69;;;14.14;89.50
4590;BME280;2307;48.448;9.216;2022-07-09T02:59:46;96432.81;;;14.18;89.42
4590;BME280;2307;48.448;9.216;2022-07-09T03:02:13;96423.72;;;14.14;90.51
4590;BME280;2307;48.448;9.216;2022-07-09T03:04:40;96429.13;;;14.19;91.13
4590;BME280;2307;48.448;9.216;2022-07-09T03:07:07;96425.91;;;14.17;92.07
4590;BME280;2307;48.448;9.216;2022-07-09T03:09:34;96426.94;;;14.16;91.94
4590;BME280;2307;48.448;9.216;2022-07-09T03:12:00;96425.91;;;14.17;92.87
4590;BME280;2307;48.448;9.216;2022-07-09T03:14:26;96435.25;;;14.19;92.46
4590;BME280;2307;48.448;9.216;2022-07-09T03:16:53;96424.75;;;14.13;93.17
4590;BME280;2307;48.448;9.216;2022-07-09T03:19:19;96435.81;;;14.10;92.96
4590;BME280;2307;48.448;9.216;2022-07-09T03:21:47;96436.06;;;14.20;91.53
4590;BME280;2307;48.448;9.216;2022-07-09T03:24:13;96439.50;;;14.09;94.10
4590;BME280;2307;48.448;9.216;2022-07-09T03:26:40;96439.88;;;14.01;93.23
4590;BME280;2307;48.448;9.216;2022-07-09T03:29:06;96437.44;;;13.88;93.33
4590;BME280;2307;48.448;9.216;2022-07-09T03:31:32;96438.47;;;13.87;93.86
4590;BME280;2307;48.448;9.216;2022-07-09T03:33:59;96443.19;;;13.73;94.88
4590;BME280;2307;48.448;9.216;2022-07-09T03:36:25;96450.47;;;13.77;93.99
4590;BME280;2307;48.448;9.216;2022-07-09T03:38:53;96450.00;;;13.80;92.96
4590;BME280;2307;48.448;9.216;2022-07-09T03:41:20;96439.16;;;13.82;94.48
4590;BME280;2307;48.448;9.216;2022-07-09T03:43:46;96443.41;;;13.83;93.15
4590;BME280;2307;48.448;9.216;2022-07-09T03:46:12;96441.94;;;13.87;96.89
4590;BME280;2307;48.448;9.216;2022-07-09T03:48:39;96443.78;;;13.87;97.81
4590;BME280;2307;48.448;9.216;2022-07-09T03:51:05;96454.59;;;13.73;98.50
4590;BME280;2307;48.448;9.216;2022-07-09T03:53:32;96447.56;;;13.67;100.00
4590;BME280;2307;48.448;9.216;2022-07-09T03:56:00;96438.09;;;13.71;98.58
4590;BME280;2307;48.448;9.216;2022-07-09T03:58:26;96444.91;;;13.67;99.79
4590;BME280;2307;48.448;9.216;2022-07-09T04:00:53;96433.00;;;13.70;100.00
4590;BME280;2307;48.448;9.216;2022-07-09T04:03:19;96435.56;;;13.76;97.48
4590;BME280;2307;48.448;9.216;2022-07-09T04:05:46;96446.06;;;13.83;96.48
4590;BME280;2307;48.448;9.216;2022-07-09T04:08:12;96441.94;;;13.87;96.31
4590;BME280;2307;48.448;9.216;2022-07-09T04:10:39;96442.19;;;13.97;96.71
4590;BME280;2307;48.448;9.216;2022-07-09T04:13:07;96447.03;;;14.23;95.59
4590;BME280;2307;48.448;9.216;2022-07-09T04:15:33;96450.16;;;14.32;94.19
4590;BME280;2307;48.448;9.216;2022-07-09T04:17:59;96447.84;;;14.12;96.39
4590;BME280;2307;48.448;9.216;2022-07-09T04:20:26;96447.03;;;14.12;96.82
4590;BME280;2307;48.448;9.216;2022-07-09T04:22:52;96447.28;;;14.10;98.27
4590;BME280;2307;48.448;9.216;2022-07-09T04:25:18;96453.41;;;14.11;100.00
4590;BME280;2307;48.448;9.216;2022-07-09T04:27:46;96451.88;;;14.03;99.48
4590;BME280;2307;48.448;9.216;2022-07-09T04:30:14;96452.44;;;13.94;100.00
4590;BME280;2307;48.448;9.216;2022-07-09T04:32:40;96452.34;;;13.89;100.00
4590;BME280;2307;48.448;9.216;2022-07-09T04:35:07;96461.91;;;13.90;100.00
4590;BME280;2307;48.448;9.216;2022-07-09T04:37:33;96458.06;;;13.74;100.00
4590;BME280;2307;48.448;9.216;2022-07-09T04:40:00;96458.88;;;13.74;100.00
4590;BME280;2307;48.448;9.216;2022-07-09T04:42:27;96448.97;;;13.81;100.00
4590;BME280;2307;48.448;9.216;2022-07-09T04:44:53;96450.00;;;13.92;100.00
4590;BME280;2307;48.448;9.216;2022-07-09T04:47:21;96452.69;;;14.04;100.00
4590;BME280;2307;48.448;9.216;2022-07-09T04:49:47;96454.66;;;13.97;100.00
4590;BME280;2307;48.448;9.216;2022-07-09T04:52:14;96456.59;;;13.90;100.00
4590;BME280;2307;48.448;9.216;2022-07-09T04:54:42;96455.56;;;13.91;100.00
4590;BME280;2307;48.448;9.216;2022-07-09T04:57:08;96459.59;;;13.93;100.00
4590;BME280;2307;48.448;9.216;2022-07-09T04:59:35;96455.22;;;13.87;100.00
4590;BME280;2307;48.448;9.216;2022-07-09T05:02:01;96456.59;;;13.90;100.00
4590;BME280;2307;48.448;9.216;2022-07-09T05:04:29;96452.34;;;13.89;100.00
4590;BME280;2307;48.448;9.216;2022-07-09T05:06:56;96454.06;;;13.95;100.00
4590;BME280;2307;48.448;9.216;2022-07-09T05:09:22;96455.09;;;13.94;100.00
4590;BME280;2307;48.448;9.216;2022-07-09T05:11:48;96451.66;;;14.05;100.00
4590;BME280;2307;48.448;9.216;2022-07-09T05:14:15;96460.31;;;14.12;100.00
4590;BME280;2307;48.448;9.216;2022-07-09T05:16:41;96457.53;;;14.18;100.00
4590;BME280;2307;48.448;9.216;2022-07-09T05:19:09;96454.41;;;14.21;100.00
4590;BME280;2307;48.448;9.216;2022-07-09T05:21:37;96459.38;;;14.18;100.00
4590;BME280;2307;48.448;9.216;2022-07-09T05:24:04;96455.69;;;14.19;100.00
4590;BME280;2307;48.448;9.216;2022-07-09T05:26:30;96453.59;;;14.21;100.00
4590;BME280;2307;48.448;9.216;2022-07-09T05:28:57;96452.00;;;14.20;100.00
4590;BME280;2307;48.448;9.216;2022-07-09T05:31:23;96453.13;;;14.24;100.00
4590;BME280;2307;48.448;9.216;2022-07-09T05:33:50;96458.13;;;14.32;100.00
4590;BME280;2307;48.448;9.216;2022-07-09T05:36:16;96456.41;;;14.38;100.00
4590;BME280;2307;48.448;9.216;2022-07-09T05:38:44;96457.66;;;14.47;100.00
4590;BME280;2307;48.448;9.216;2022-07-09T05:41:12;96457.69;;;14.58;100.00
4590;BME280;2307;48.448;9.216;2022-07-09T05:43:39;96466.31;;;14.65;100.00
4590;BME280;2307;48.448;9.216;2022-07-09T05:46:06;96466.91;;;14.67;100.00
4590;BME280;2307;48.448;9.216;2022-07-09T05:48:32;96472.09;;;14.74;100.00
4590;BME280;2307;48.448;9.216;2022-07-09T05:50:58;96465.72;;;14.75;100.00
4590;BME280;2307;48.448;9.216;2022-07-09T05:53:25;96465.38;;;14.71;100.00
4590;BME280;2307;48.448;9.216;2022-07-09T05:55:52;96467.13;;;14.77;100.00
4590;BME280;2307;48.448;9.216;2022-07-09T05:58:19;96460.41;;;14.75;99.73
4590;BME280;2307;48.448;9.216;2022-07-09T06:00:45;96460.19;;;14.76;98.35
4590;BME280;2307;48.448;9.216;2022-07-09T06:03:12;96450.34;;;14.77;99.70
4590;BME280;2307;48.448;9.216;2022-07-09T06:05:38;96449.50;;;14.88;98.59
4590;BME280;2307;48.448;9.216;2022-07-09T06:08:04;96449.72;;;14.98;99.42
4590;BME280;2307;48.448;9.216;2022-07-09T06:10:31;96454.41;;;15.08;99.60
4590;BME280;2307;48.448;9.216;2022-07-09T06:12:59;96456.84;;;15.09;100.00
4590;BME280;2307;48.448;9.216;2022-07-09T06:15:25;96452.66;;;15.13;100.00
4590;BME280;2307;48.448;9.216;2022-07-09T06:17:52;96462.69;;;15.23;100.00
4590;BME280;2307;48.448;9.216;2022-07-09T06:20:18;96462.69;;;15.23;100.00
4590;BME280;2307;48.448;9.216;2022-07-09T06:22:45;96460.38;;;15.26;99.22
4590;BME280;2307;48.448;9.216;2022-07-09T06:25:12;96464.03;;;15.37;100.00
4590;BME280;2307;48.448;9.216;2022-07-09T06:27:38;96455.31;;;15.41;100.00
4590;BME280;2307;48.448;9.216;2022-07-09T06:30:07;96459.56;;;15.54;100.00
4590;BME280;2307;48.448;9.216;2022-07-09T06:32:34;96457.56;;;15.61;100.00
4590;BME280;2307;48.448;9.216;2022-07-09T06:35:00;96455.91;;;15.72;100.00
4590;BME280;2307;48.448;9.216;2022-07-09T06:37:28;96465.44;;;15.84;100.00
4590;BME280;2307;48.448;9.216;2022-07-09T06:39:54;96459.78;;;15.98;99.49
4590;BME280;2307;48.448;9.216;2022-07-09T06:42:22;96455.50;;;16.13;98.34
4590;BME280;2307;48.448;9.216;2022-07-09T06:44:49;96460.25;;;16.28;94.40
4590;BME280;2307;48.448;9.216;2022-07-09T06:47:17;96455.50;;;16.30;94.75
4590;BME280;2307;48.448;9.216;2022-07-09T06:49:43;96455.88;;;16.22;90.87
4590;BME280;2307;48.448;9.216;2022-07-09T06:52:09;96448.94;;;16.21;92.26
4590;BME280;2307;48.448;9.216;2022-07-09T06:54:36;96461.22;;;16.38;90.84
4590;BME280;2307;48.448;9.216;2022-07-09T06:57:03;96458.88;;;16.42;94.25
4590;BME280;2307;48.448;9.216;2022-07-09T06:59:29;96468.53;;;16.48;91.40
4590;BME280;2307;48.448;9.216;2022-07-09T07:01:56;96459.72;;;16.47;91.86
4590;BME280;2307;48.448;9.216;2022-07-09T07:04:23;96469.09;;;16.50;84.03
4590;BME280;2307;48.448;9.216;2022-07-09T07:06:51;96463.88;;;16.55;81.84
4590;BME280;2307;48.448;9.216;2022-07-09T07:09:18;96457.66;;;16.71;78.60
4590;BME280;2307;48.448;9.216;2022-07-09T07:11:46;96462.28;;;16.76;78.64
4590;BME280;2307;48.448;9.216;2022-07-09T07:14:12;96461.91;;;16.89;75.81
4590;BME280;2307;48.448;9.216;2022-07-09T07:16:39;96460.66;;;16.96;76.10
4590;BME280;2307;48.448;9.216;2022-07-09T07:19:05;96459.56;;;16.92;84.28
4590;BME280;2307;48.448;9.216;2022-07-09T07:21:33;96467.56;;;16.92;84.08
4590;BME280;2307;48.448;9.216;2022-07-09T07:23:59;96461.47;;;17.19;78.46
4590;BME280;2307;48.448;9.216;2022-07-09T07:26:26;96458.22;;;17.38;73.16
4590;BME280;2307;48.448;9.216;2022-07-09T07:28:52;96454.63;;;17.54;70.36
4590;BME280;2307;48.448;9.216;2022-07-09T07:31:19;96457.19;;;17.66;71.13
4590;BME280;2307;48.448;9.216;2022-07-09T07:33:47;96455.56;;;17.65;69.44
4590;BME280;2307;48.448;9.216;2022-07-09T07:36:14;96445.91;;;17.59;71.57
4590;BME280;2307;48.448;9.216;2022-07-09T07:38:41;96452.00;;;17.81;63.62
4590;BME280;2307;48.448;9.216;2022-07-09T07:41:08;96451.16;;;17.76;65.00
4590;BME280;2307;48.448;9.216;2022-07-09T07:43:34;96447.78;;;17.90;66.38
4590;BME280;2307;48.448;9.216;2022-07-09T07:46:00;96454.81;;;18.01;64.03
4590;BME280;2307;48.448;9.216;2022-07-09T07:48:27;96452.22;;;18.12;62.78
4590;BME280;2307;48.448;9.216;2022-07-09T07:50:55;96447.44;;;18.14;63.15
4590;BME280;2307;48.448;9.216;2022-07-09T07:53:22;96448.50;;;18.13;60.92
4590;BME280;2307;48.448;9.216;2022-07-09T07:55:50;96439.19;;;18.20;60.42
4590;BME280;2307;48.448;9.216;2022-07-09T07:58:16;96436.88;;;18.34;64.62
4590;BME280;2307;48.448;9.216;2022-07-09T08:00:43;96444.44;;;18.47;66.05
4590;BME280;2307;48.448;9.216;2022-07-09T08:03:10;96444.00;;;18.55;60.08
4590;BME280;2307;48.448;9.216;2022-07-09T08:05:36;96444.59;;;18.67;59.09
4590;BME280;2307;48.448;9.216;2022-07-09T08:08:03;96449.44;;;18.75;61.86
4590;BME280;2307;48.448;9.216;2022-07-09T08:10:29;96447.06;;;18.84;60.73
4590;BME280;2307;48.448;9.216;2022-07-09T08:12:57;96451.13;;;18.86;63.64
4590;BME280;2307;48.448;9.216;2022-07-09T08:15:23;96453.31;;;18.99;61.86
4590;BME280;2307;48.448;9.216;2022-07-09T08:17:50;96450.38;;;18.96;58.54
4590;BME280;2307;48.448;9.216;2022-07-09T08:20:16;96448.25;;;19.08;60.29
4590;BME280;2307;48.448;9.216;2022-07-09T08:22:43;96446.41;;;19.08;62.20
4590;BME280;2307;48.448;9.216;2022-07-09T08:25:09;96446.41;;;19.19;64.32
4590;BME280;2307;48.448;9.216;2022-07-09T08:27:35;96449.09;;;19.19;64.38
4590;BME280;2307;48.448;9.216;2022-07-09T08:30:04;96448.94;;;19.40;60.86
4590;BME280;2307;48.448;9.216;2022-07-09T08:32:30;96448.66;;;19.42;64.11
4590;BME280;2307;48.448;9.216;2022-07-09T08:34:57;96440.81;;;19.25;64.78
4590;BME280;2307;48.448;9.216;2022-07-09T08:37:23;96450.03;;;19.49;59.59
4590;BME280;2307;48.448;9.216;2022-07-09T08:39:50;96438.53;;;19.59;59.29
4590;BME280;2307;48.448;9.216;2022-07-09T08:42:16;96441.72;;;19.56;62.81
4590;BME280;2307;48.448;9.216;2022-07-09T08:44:43;96445.72;;;19.53;62.66
4590;BME280;2307;48.448;9.216;2022-07-09T08:47:12;96435.56;;;19.55;65.91
4590;BME280;2307;48.448;9.216;2022-07-09T08:49:40;96439.06;;;19.76;60.22
4590;BME280;2307;48.448;9.216;2022-07-09T08:52:07;96436.13;;;19.83;60.09
4590;BME280;2307;48.448;9.216;2022-07-09T08:54:34;96431.03;;;19.91;59.23
4590;BME280;2307;48.448;9.216;2022-07-09T08:57:02;96432.09;;;19.95;58.74
4590;BME280;2307;48.448;9.216;2022-07-09T08:59:29;96424.59;;;20.02;60.95
4590;BME280;2307;48.448;9.216;2022-07-09T09:01:55;96428.88;;;19.98;63.73
4590;BME280;2307;48.448;9.216;2022-07-09T09:04:23;96421.91;;;20.12;58.64
4590;BME280;2307;48.448;9.216;2022-07-09T09:06:50;96425.13;;;20.20;58.33
4590;BME280;2307;48.448;9.216;2022-07-09T09:09:17;96421.91;;;20.12;56.58
4590;BME280;2307;48.448;9.216;2022-07-09T09:11:46;96417.06;;;20.04;57.23
4590;BME280;2307;48.448;9.216;2022-07-09T09:14:17;96414.94;;;20.11;57.84
4590;BME280;2307;48.448;9.216;2022-07-09T09:16:44;96420.81;;;20.19;59.78
4590;BME280;2307;48.448;9.216;2022-07-09T09:19:10;96416.53;;;20.12;58.63
4590;BME280;2307;48.448;9.216;2022-07-09T09:21:38;96409.31;;;20.23;57.96
4590;BME280;2307;48.448;9.216;2022-07-09T09:24:04;96413.59;;;20.34;59.16
4590;BME280;2307;48.448;9.216;2022-07-09T09:26:31;96414.66;;;20.48;56.69
4590;BME280;2307;48.448;9.216;2022-07-09T09:28:59;96407.66;;;20.47;57.51
4590;BME280;2307;48.448;9.216;2022-07-09T09:31:27;96402.53;;;20.56;57.40
4590;BME280;2307;48.448;9.216;2022-07-09T09:33:54;96404.16;;;20.52;55.94
4590;BME280;2307;48.448;9.216;2022-07-09T09:36:31;96409.50;;;20.52;58.60
4590;BME280;2307;48.448;9.216;2022-07-09T09:39:12;96401.72;;;20.60;59.24
4590;BME280;2307;48.448;9.216;2022-07-09T09:41:38;96398.78;;;20.57;58.59
4590;BME280;2307;48.448;9.216;2022-07-09T09:44:06;96400.84;;;20.80;54.69
4590;BME280;2307;48.448;9.216;2022-07-09T09:46:34;96395.50;;;20.80;54.15
4590;BME280;2307;48.448;9.216;2022-07-09T09:49:01;96401.09;;;20.84;54.07
4590;BME280;2307;48.448;9.216;2022-07-09T09:51:31;96405.94;;;20.82;52.47
4590;BME280;2307;48.448;9.216;2022-07-09T09:53:58;96387.91;;;20.92;51.99
4590;BME280;2307;48.448;9.216;2022-07-09T09:56:28;96385.78;;;20.89;53.62
4590;BME280;2307;48.448;9.216;2022-07-09T09:58:54;96383.34;;;20.93;52.21
4590;BME280;2307;48.448;9.216;2022-07-09T10:01:21;96382.50;;;21.02;53.36
4590;BME280;2307;48.448;9.216;2022-07-09T10:03:48;96384.63;;;21.10;54.79
4590;BME280;2307;48.448;9.216;2022-07-09T10:06:15;96374.66;;;21.16;53.41
4590;BME280;2307;48.448;9.216;2022-07-09T10:08:42;96374.63;;;21.21;52.43
4590;BME280;2307;48.448;9.216;2022-07-09T10:11:08;96367.03;;;21.33;52.25
4590;BME280;2307;48.448;9.216;2022-07-09T10:13:38;96372.72;;;21.27;50.88
4590;BME280;2307;48.448;9.216;2022-07-09T10:16:15;96374.31;;;21.28;50.89
4590;BME280;2307;48.448;9.216;2022-07-09T10:18:49;96365.63;;;21.41;53.92
4590;BME280;2307;48.448;9.216;2022-07-09T10:21:15;96372.03;;;21.50;53.59
4590;BME280;2307;48.448;9.216;2022-07-09T10:23:48;96366.03;;;21.58;50.68
4590;BME280;2307;48.448;9.216;2022-07-09T10:26:14;96363.78;;;21.70;49.12
4590;BME280;2307;48.448;9.216;2022-07-09T10:28:42;96361.50;;;21.87;47.62
4590;BME280;2307;48.448;9.216;2022-07-09T10:31:08;96366.03;;;21.97;46.86
4590;BME280;2307;48.448;9.216;2022-07-09T10:33:37;96372.63;;;22.09;45.75
4590;BME280;2307;48.448;9.216;2022-07-09T10:36:13;96374.66;;;22.22;45.95
4590;BME280;2307;48.448;9.216;2022-07-09T10:38:40;96364.25;;;22.16;46.30
4590;BME280;2307;48.448;9.216;2022-07-09T10:41:06;96369.28;;;22.22;48.28
4590;BME280;2307;48.448;9.216;2022-07-09T10:43:39;96355.19;;;22.31;44.99
4590;BME280;2307;48.448;9.216;2022-07-09T10:46:10;96354.34;;;22.59;44.21
4590;BME280;2307;48.448;9.216;2022-07-09T10:48:37;96353.91;;;22.75;42.34
4590;BME280;2307;48.448;9.216;2022-07-09T10:51:04;96361.41;;;22.79;42.32
4590;BME280;2307;48.448;9.216;2022-07-09T10:53:30;96363.06;;;23.17;44.17
4590;BME280;2307;48.448;9.216;2022-07-09T10:55:57;96359.72;;;23.25;43.22
4590;BME280;2307;48.448;9.216;2022-07-09T10:58:24;96360.16;;;23.32;45.02
4590;BME280;2307;48.448;9.216;2022-07-09T11:00:54;96361.09;;;23.60;44.11
4590;BME280;2307;48.448;9.216;2022-07-09T11:03:25;96355.66;;;23.97;42.15
4590;BME280;2307;48.448;9.216;2022-07-09T11:05:52;96361.13;;;24.24;42.36
4590;BME280;2307;48.448;9.216;2022-07-09T11:08:19;96358.13;;;23.61;41.25
4590;BME280;2307;48.448;9.216;2022-07-09T11:10:45;96350.84;;;23.94;41.25
4590;BME280;2307;48.448;9.216;2022-07-09T11:13:12;96347.97;;;24.50;42.24
4590;BME280;2307;48.448;9.216;2022-07-09T11:15:38;96351.50;;;24.92;41.55
4590;BME280;2307;48.448;9.216;2022-07-09T11:18:05;96349.09;;;25.40;39.94
4590;BME280;2307;48.448;9.216;2022-07-09T11:20:36;96337.63;;;25.56;40.39
4590;BME280;2307;48.448;9.216;2022-07-09T11:23:03;96347.03;;;26.03;39.86
4590;BME280;2307;48.448;9.216;2022-07-09T11:25:29;96340.16;;;26.19;38.10
4590;BME280;2307;48.448;9.216;2022-07-09T11:27:56;96339.13;;;26.37;37.77
4590;BME280;2307;48.448;9.216;2022-07-09T11:30:25;96337.03;;;26.34;36.85
4590;BME280;2307;48.448;9.216;2022-07-09T11:32:52;96330.28;;;26.63;35.11
4590;BME280;2307;48.448;9.216;2022-07-09T11:35:25;96342.66;;;26.47;34.68
4590;BME280;2307;48.448;9.216;2022-07-09T11:37:53;96341.59;;;26.25;34.85
4590;BME280;2307;48.448;9.216;2022-07-09T11:40:20;96343.63;;;25.98;36.07
4590;BME280;2307;48.448;9.216;2022-07-09T11:42:46;96341.50;;;25.86;34.97
4590;BME280;2307;48.448;9.216;2022-07-09T11:45:14;96338.22;;;25.98;35.34
4590;BME280;2307;48.448;9.216;2022-07-09T11:47:41;96343.72;;;25.84;34.15
4590;BME280;2307;48.448;9.216;2022-07-09T11:50:08;96340.41;;;25.87;34.10
4590;BME280;2307;48.448;9.216;2022-07-09T11:52:35;96336.22;;;25.59;34.14
4590;BME280;2307;48.448;9.216;2022-07-09T11:55:04;96328.19;;;25.98;35.76
4590;BME280;2307;48.448;9.216;2022-07-09T11:57:31;96328.69;;;26.00;35.33
4590;BME280;2307;48.448;9.216;2022-07-09T11:59:58;96325.25;;;26.39;34.70
4590;BME280;2307;48.448;9.216;2022-07-09T12:02:25;96323.31;;;26.31;33.78
4590;BME280;2307;48.448;9.216;2022-07-09T12:04:52;96330.03;;;26.42;34.49
4590;BME280;2307;48.448;9.216;2022-07-09T12:07:18;96325.34;;;26.65;32.97
4590;BME280;2307;48.448;9.216;2022-07-09T12:09:45;96321.59;;;26.83;33.91
4590;BME280;2307;48.448;9.216;2022-07-09T12:12:12;96305.66;;;26.90;34.82
4590;BME280;2307;48.448;9.216;2022-07-09T12:14:39;96303.97;;;27.11;34.90
4590;BME280;2307;48.448;9.216;2022-07-09T12:17:05;96311.63;;;27.26;34.59
4590;BME280;2307;48.448;9.216;2022-07-09T12:19:32;96306.34;;;27.38;33.13
4590;BME280;2307;48.448;9.216;2022-07-09T12:21:58;96290.72;;;26.62;31.52
4590;BME280;2307;48.448;9.216;2022-07-09T12:24:25;96294.25;;;26.62;32.83
4590;BME280;2307;48.448;9.216;2022-07-09T12:26:51;96291.63;;;26.97;33.08
4590;BME280;2307;48.448;9.216;2022-07-09T12:29:19;96288.75;;;26.93;33.78
4590;BME280;2307;48.448;9.216;2022-07-09T12:31:45;96289.59;;;27.11;32.71
4590;BME280;2307;48.448;9.216;2022-07-09T12:34:11;96280.00;;;27.13;32.45
4590;BME280;2307;48.448;9.216;2022-07-09T12:36:38;96276.81;;;27.20;33.23
4590;BME280;2307;48.448;9.216;2022-07-09T12:39:06;96275.69;;;27.72;32.91
4590;BME280;2307;48.448;9.216;2022-07-09T12:41:32;96275.72;;;27.47;31.42
4590;BME280;2307;48.448;9.216;2022-07-09T12:43:59;96275.53;;;27.34;32.84
4590;BME280;2307;48.448;9.216;2022-07-09T12:46:26;96271.72;;;27.18;31.94
4590;BME280;2307;48.448;9.216;2022-07-09T12:48:53;96268.84;;;26.98;33.17
4590;BME280;2307;48.448;9.216;2022-07-09T12:51:19;96263.06;;;26.90;34.39
4590;BME280;2307;48.448;9.216;2022-07-09T12:53:46;96259.44;;;27.29;32.60
4590;BME280;2307;48.448;9.216;2022-07-09T12:56:12;96258.94;;;27.27;34.43
4590;BME280;2307;48.448;9.216;2022-07-09T12:58:39;96250.50;;;27.03;34.29
4590;BME280;2307;48.448;9.216;2022-07-09T13:01:05;96247.63;;;26.91;33.79
4590;BME280;2307;48.448;9.216;2022-07-09T13:03:33;96261.03;;;27.13;33.68
4590;BME280;2307;48.448;9.216;2022-07-09T13:06:00;96263.72;;;26.96;34.77
4590;BME280;2307;48.448;9.216;2022-07-09T13:08:26;96251.69;;;26.63;35.55
4590;BME280;2307;48.448;9.216;2022-07-09T13:10:52;96252.66;;;26.75;35.43
4590;BME280;2307;48.448;9.216;2022-07-09T13:13:19;96245.28;;;26.50;34.67
4590;BME280;2307;48.448;9.216;2022-07-09T13:15:45;96243.53;;;26.54;35.45
4590;BME280;2307;48.448;9.216;2022-07-09T13:18:12;96241.78;;;26.50;36.15